Terminal Aerodrome Forecast
Issued by NWS Raleigh/Durham, NC

Home | Current Version | Previous Version | Text Only | Print | Product List | Glossary On
Versions: 1 2 3 4 5 6 7 8 9 10 11 12 13 14 15 16 17 18 19 20 21 22 23 24 25 26 27 28 29 30 31 32 33 34 35 36 37 38 39 40 41 42
000
FTUS42 KRAH 180057 AAA
TAFRDU
TAF AMD
KRDU 180057Z 1801/1824 VRB03KT 3SM -RADZ BR OVC005
      TEMPO 1801/1804 1SM -RADZ BR
     FM180600 VRB03KT P6SM OVC020
     FM180800 VRB04KT P6SM BKN060
     FM181200 34005KT P6SM FEW200
     FM181400 04005KT P6SM FEW250=

USA.gov is the U.S. government's official web portal to all federal, state and local government web resources and services.